Time;durP1;ratioP1;P1;durP2;ratioP2;P2;SDS_P1;SDS_P2;PMS_P1;PMS_P2;Temp;Humidity;BMP_temperature;BMP_pressure;BME280_temperature;BME280_humidity;BME280_pressure;Samples;Min_cycle;Max_cycle;Signal;HPM_P1;HPM_P2
2023/03/02 00:00:15;;;;;;;10.70;8.70;;;;;;;6.34;52.54;102386.50;106042;1272;1003639;-48
2023/03/02 00:02:44;;;;;;;11.90;9.10;;;;;;;6.33;52.66;102384.77;106766;1273;25357;-48
2023/03/02 00:05:13;;;;;;;11.10;8.60;;;;;;;6.34;52.75;102387.54;106718;1273;22660;-48
2023/03/02 00:11:14;;;;;;;12.70;9.60;;;;;;;6.36;52.80;102389.48;103022;1298;1002373;-48
2023/03/02 00:13:45;;;;;;;10.10;8.70;;;;;;;6.33;53.04;102386.66;105245;1280;1003179;-48
2023/03/02 00:16:14;;;;;;;12.30;9.60;;;;;;;6.34;53.19;102391.00;106015;1281;25374;-48
2023/03/02 00:18:42;;;;;;;11.70;8.00;;;;;;;6.35;53.28;102391.20;105964;1281;25365;-48
2023/03/02 00:21:11;;;;;;;11.60;8.80;;;;;;;6.36;53.45;102389.14;105196;1281;1002555;-48
2023/03/02 00:23:40;;;;;;;9.50;8.10;;;;;;;6.36;53.51;102385.52;105123;1266;1002965;-49
2023/03/02 00:26:11;;;;;;;10.00;8.70;;;;;;;6.34;53.52;102384.42;105816;1286;25341;-48
2023/03/02 00:28:39;;;;;;;10.20;8.10;;;;;;;6.33;53.76;102382.70;106379;1278;26501;-48
2023/03/02 00:31:08;;;;;;;11.00;8.90;;;;;;;6.32;53.81;102379.59;106331;1275;25373;-48
2023/03/02 00:33:40;;;;;;;10.70;8.30;;;;;;;6.31;54.03;102381.09;106351;1275;25360;-48
2023/03/02 00:36:16;;;;;;;9.30;7.90;;;;;;;6.29;54.15;102375.54;106418;1275;25328;-48
2023/03/02 00:38:45;;;;;;;11.80;8.90;;;;;;;6.28;54.22;102378.45;106380;1275;25360;-48
2023/03/02 00:41:15;;;;;;;11.20;8.40;;;;;;;6.27;54.46;102378.77;106277;1281;25373;-48
2023/03/02 00:43:43;;;;;;;10.60;8.00;;;;;;;6.27;54.71;102376.36;106187;1283;25308;-48
2023/03/02 00:46:14;;;;;;;13.60;8.50;;;;;;;6.30;54.92;102376.24;106400;1278;25412;-48
2023/03/02 00:48:48;;;;;;;10.30;8.30;;;;;;;6.31;54.88;102376.62;106424;1278;25533;-48
2023/03/02 00:51:18;;;;;;;11.10;8.10;;;;;;;6.31;54.79;102377.84;106327;1275;25388;-49
2023/03/02 00:53:48;;;;;;;9.40;7.50;;;;;;;6.30;54.83;102377.98;106373;1259;25356;-48
2023/03/02 00:56:16;;;;;;;9.80;7.40;;;;;;;6.28;54.89;102380.35;105670;1276;1003585;-48
2023/03/02 00:58:46;;;;;;;10.00;8.00;;;;;;;6.24;55.11;102383.53;106470;1275;25428;-48
2023/03/02 01:01:15;;;;;;;11.00;8.20;;;;;;;6.20;55.36;102388.08;106472;1275;25338;-48
2023/03/02 01:03:48;;;;;;;11.10;7.90;;;;;;;6.16;55.45;102389.73;106426;1277;25367;-48
2023/03/02 01:06:18;;;;;;;10.50;7.90;;;;;;;6.19;55.52;102385.48;106501;1275;25364;-49
2023/03/02 01:08:48;;;;;;;12.30;8.90;;;;;;;6.22;55.32;102385.90;106518;1275;25351;-48
2023/03/02 01:11:18;;;;;;;10.70;8.10;;;;;;;6.22;55.27;102380.90;106479;1273;22647;-48
2023/03/02 01:13:47;;;;;;;11.20;8.00;;;;;;;6.21;55.23;102384.15;105977;1275;1002883;-49
2023/03/02 01:16:16;;;;;;;11.30;8.50;;;;;;;6.22;55.24;102383.14;106821;1272;22520;-49
2023/03/02 01:18:50;;;;;;;12.00;8.20;;;;;;;6.20;55.22;102380.86;106740;1272;25356;-48
2023/03/02 01:21:18;;;;;;;11.90;8.50;;;;;;;6.16;55.45;102381.63;106504;1278;25450;-48
2023/03/02 01:23:47;;;;;;;10.40;7.80;;;;;;;6.15;55.79;102379.36;106833;1272;25364;-48
2023/03/02 01:26:15;;;;;;;10.00;7.10;;;;;;;6.16;55.97;102381.96;106034;1272;1003772;-49
2023/03/02 01:28:44;;;;;;;10.80;8.10;;;;;;;6.17;55.74;102381.13;106864;1274;23934;-49
2023/03/02 01:31:14;;;;;;;10.00;8.00;;;;;;;6.17;55.83;102381.82;106744;1273;25325;-49
2023/03/02 01:33:43;;;;;;;9.20;7.40;;;;;;;6.16;55.79;102387.84;106815;1272;25503;-48
2023/03/02 01:36:11;;;;;;;9.50;8.00;;;;;;;6.13;55.84;102391.20;106818;1272;25354;-48
2023/03/02 01:38:40;;;;;;;9.50;7.70;;;;;;;6.11;56.08;102390.81;106018;1271;1003305;-48
2023/03/02 01:41:09;;;;;;;9.20;7.40;;;;;;;6.10;56.25;102385.63;106740;1262;26494;-49
2023/03/02 01:43:38;;;;;;;8.70;7.40;;;;;;;6.10;56.30;102385.10;106497;1272;25364;-49
2023/03/02 01:46:11;;;;;;;11.80;8.10;;;;;;;6.11;56.35;102383.58;106815;1271;22526;-48
2023/03/02 01:48:52;;;;;;;11.10;8.00;;;;;;;6.13;56.32;102387.08;106500;1272;25312;-48
2023/03/02 01:51:34;;;;;;;9.60;7.70;;;;;;;6.13;56.35;102386.04;106740;1276;25343;-48
2023/03/02 01:54:05;;;;;;;10.20;7.90;;;;;;;6.12;56.37;102387.90;105929;1276;1003203;-48
2023/03/02 01:56:35;;;;;;;10.60;8.20;;;;;;;6.10;56.53;102388.73;105994;1272;1002899;-48
2023/03/02 01:59:13;;;;;;;10.30;7.90;;;;;;;6.09;56.54;102386.63;106017;1271;1003768;-48
2023/03/02 02:01:44;;;;;;;10.80;8.30;;;;;;;6.08;56.46;102387.30;106457;1273;22521;-48
2023/03/02 02:04:20;;;;;;;9.70;6.90;;;;;;;6.08;56.59;102386.27;106647;1276;25394;-48
2023/03/02 02:06:54;;;;;;;9.30;7.00;;;;;;;6.09;56.53;102389.55;105954;1272;1003635;-48
2023/03/02 02:09:23;;;;;;;10.90;8.20;;;;;;;6.08;56.57;102384.55;106801;1274;22523;-48
2023/03/02 02:11:51;;;;;;;9.30;7.40;;;;;;;6.07;56.69;102384.52;106453;1274;22526;-48
2023/03/02 02:14:20;;;;;;;10.10;7.90;;;;;;;6.07;56.69;102385.92;106481;1278;25517;-48
2023/03/02 02:16:49;;;;;;;9.80;7.40;;;;;;;6.06;56.81;102388.64;106456;1278;25341;-49
2023/03/02 02:20:08;;;;;;;10.50;7.50;;;;;;;6.05;56.63;102391.72;106388;1275;26733;-48
2023/03/02 02:22:48;;;;;;;9.80;7.90;;;;;;;6.03;56.75;102392.87;106310;1278;25561;-48
2023/03/02 02:25:43;;;;;;;9.70;7.20;;;;;;;6.01;56.97;102398.00;105958;1282;25368;-48
2023/03/02 02:28:18;;;;;;;10.60;8.60;;;;;;;6.03;57.07;102398.21;106126;1282;25358;-48
2023/03/02 02:30:48;;;;;;;10.00;8.20;;;;;;;6.02;57.24;102397.67;106102;1282;25384;-48
2023/03/02 02:33:18;;;;;;;10.00;8.00;;;;;;;6.02;57.28;102398.71;105459;1282;1002882;-49
2023/03/02 02:35:47;;;;;;;12.40;8.50;;;;;;;6.03;57.31;102401.14;105508;1279;1003088;-49
2023/03/02 02:38:17;;;;;;;10.90;7.70;;;;;;;6.03;57.51;102400.81;105907;1279;25516;-49
2023/03/02 02:40:56;;;;;;;10.00;7.70;;;;;;;6.04;57.65;102402.38;105951;1278;24253;-49
2023/03/02 02:43:29;;;;;;;9.10;8.20;;;;;;;6.07;57.68;102405.54;106340;1276;22749;-49
2023/03/02 02:45:59;;;;;;;10.70;8.50;;;;;;;6.08;57.65;102406.08;106348;1276;22653;-49
2023/03/02 02:48:29;;;;;;;12.00;9.30;;;;;;;6.12;57.63;102405.83;105989;1281;25353;-48
2023/03/02 02:50:59;;;;;;;12.50;8.80;;;;;;;6.18;57.49;102405.63;105784;1276;1003414;-49
2023/03/02 02:53:36;;;;;;;15.50;10.20;;;;;;;6.24;57.18;102409.73;105340;1281;1003666;-49
2023/03/02 02:56:06;;;;;;;15.80;10.70;;;;;;;6.28;56.89;102417.07;106490;1272;22544;-49
2023/03/02 02:58:40;;;;;;;13.80;10.50;;;;;;;6.31;56.61;102413.16;106666;1276;25418;-49
2023/03/02 03:01:24;;;;;;;12.80;10.40;;;;;;;6.33;56.22;102407.52;106743;1271;23874;-49
2023/03/02 03:04:00;;;;;;;12.40;10.50;;;;;;;6.35;55.99;102413.77;106808;1272;22627;-48
2023/03/02 03:06:41;;;;;;;14.00;10.90;;;;;;;6.35;55.60;102420.84;106743;1275;25340;-49
2023/03/02 03:09:11;;;;;;;16.20;11.40;;;;;;;6.33;55.33;102422.16;106021;1271;1003642;-49
2023/03/02 03:11:52;;;;;;;14.40;11.20;;;;;;;6.25;55.38;102427.50;106732;1272;26644;-49
2023/03/02 03:14:35;;;;;;;12.70;10.70;;;;;;;6.19;55.33;102426.32;106719;1275;23554;-49
2023/03/02 03:17:10;;;;;;;17.90;12.60;;;;;;;6.13;55.32;102423.45;106705;1272;22642;-49
2023/03/02 03:19:45;;;;;;;14.10;10.00;;;;;;;6.08;55.52;102423.33;105971;1272;1003744;-49
2023/03/02 03:22:14;;;;;;;13.30;10.50;;;;;;;5.99;55.54;102423.27;106698;1272;25592;-49
2023/03/02 03:24:44;;;;;;;13.50;10.30;;;;;;;5.85;55.92;102426.72;106748;1272;25268;-49
2023/03/02 03:27:14;;;;;;;15.90;10.90;;;;;;;5.79;56.10;102422.08;106059;1271;1003081;-50
2023/03/02 03:29:46;;;;;;;15.00;10.80;;;;;;;5.79;56.10;102421.02;105953;1276;1003118;-49
2023/03/02 03:32:18;;;;;;;16.20;12.30;;;;;;;5.80;56.00;102418.98;106541;1278;22538;-49
2023/03/02 03:34:50;;;;;;;15.00;11.30;;;;;;;5.77;55.87;102419.60;106514;1277;25338;-49
2023/03/02 03:37:23;;;;;;;15.20;10.50;;;;;;;5.71;56.28;102421.19;106095;1272;1003528;-49
2023/03/02 03:39:51;;;;;;;13.20;10.20;;;;;;;5.68;56.76;102423.69;106612;1278;24352;-49
2023/03/02 03:42:21;;;;;;;14.40;10.80;;;;;;;5.68;56.85;102425.41;106776;1274;25338;-49
2023/03/02 03:44:50;;;;;;;14.30;11.20;;;;;;;5.67;57.03;102431.92;106644;1278;26507;-49
2023/03/02 03:47:19;;;;;;;13.50;10.80;;;;;;;5.64;57.25;102429.45;105826;1276;1003682;-49
2023/03/02 03:49:49;;;;;;;17.10;15.20;;;;;;;5.55;57.38;102423.38;106004;1272;1003210;-49
2023/03/02 03:52:29;;;;;;;15.20;12.00;;;;;;;5.43;57.74;102419.77;106726;1272;25382;-49
2023/03/02 03:55:11;;;;;;;13.50;10.80;;;;;;;5.43;57.88;102422.36;106291;1268;1003123;-49
2023/03/02 03:57:41;;;;;;;15.60;11.80;;;;;;;5.43;58.07;102420.45;107078;1269;22965;-50
2023/03/02 04:00:13;;;;;;;18.60;12.40;;;;;;;5.43;58.17;102419.96;106319;1268;1003625;-49
2023/03/02 04:02:46;;;;;;;17.80;12.00;;;;;;;5.42;58.13;102420.45;106342;1269;1002826;-49
2023/03/02 04:05:15;;;;;;;16.10;11.10;;;;;;;5.38;58.04;102418.80;107046;1269;26505;-49
2023/03/02 04:07:44;;;;;;;14.40;10.80;;;;;;;5.33;57.99;102416.60;106268;1271;1003754;-49
2023/03/02 04:10:15;;;;;;;14.10;11.00;;;;;;;5.28;58.05;102417.65;106951;1269;25387;-49
2023/03/02 04:12:44;;;;;;;13.80;10.60;;;;;;;5.22;58.28;102415.25;106779;1270;24421;-49
2023/03/02 04:15:15;;;;;;;16.20;10.90;;;;;;;5.17;58.47;102417.90;107097;1269;25343;-49
2023/03/02 04:17:45;;;;;;;16.10;11.90;;;;;;;5.15;58.74;102417.84;107091;1269;22635;-48
2023/03/02 04:20:16;;;;;;;15.70;11.60;;;;;;;5.15;58.80;102421.61;107105;1268;22522;-48
2023/03/02 04:22:48;;;;;;;;;;;;;;;5.14;58.83;102417.80;107041;1269;24193;-49
2023/03/02 04:25:20;;;;;;;14.60;11.10;;;;;;;5.13;58.95;102416.58;106081;1268;1003103;-48
2023/03/02 04:27:51;;;;;;;12.40;10.70;;;;;;;5.11;59.01;102417.90;106787;1275;22639;-49
2023/03/02 04:30:22;;;;;;;13.40;11.10;;;;;;;5.10;59.04;102422.69;107063;1270;24262;-49
2023/03/02 04:32:52;;;;;;;14.00;11.00;;;;;;;5.08;59.13;102422.95;106985;1268;22661;-49
2023/03/02 04:35:21;;;;;;;11.90;10.20;;;;;;;5.07;59.23;102423.28;106879;1269;25405;-49
2023/03/02 04:37:50;;;;;;;14.50;11.30;;;;;;;5.07;59.29;102418.48;106864;1270;25399;-49
2023/03/02 04:40:18;;;;;;;14.00;10.50;;;;;;;5.08;59.22;102420.91;106833;1273;25322;-50
2023/03/02 04:42:49;;;;;;;14.20;11.00;;;;;;;5.07;59.28;102422.26;106227;1268;1003195;-50
2023/03/02 04:45:17;;;;;;;13.70;11.20;;;;;;;5.06;59.17;102420.67;106787;1269;25527;-48
2023/03/02 04:47:46;;;;;;;17.10;11.50;;;;;;;5.05;59.13;102414.45;106864;1267;22530;-49
2023/03/02 04:50:14;;;;;;;15.30;11.40;;;;;;;5.04;59.09;102413.23;106997;1272;22527;-49
2023/03/02 04:52:52;;;;;;;14.90;11.70;;;;;;;5.02;59.10;102415.58;106245;1269;1003432;-48
2023/03/02 04:55:22;;;;;;;14.20;10.20;;;;;;;4.99;59.23;102421.02;107050;1268;25322;-49
2023/03/02 04:57:51;;;;;;;15.30;10.90;;;;;;;4.99;59.23;102421.01;106971;1269;25339;-49
2023/03/02 05:00:20;;;;;;;13.90;11.10;;;;;;;5.00;59.38;102425.34;106314;1272;1002885;-49
2023/03/02 05:02:48;;;;;;;15.20;10.50;;;;;;;5.01;59.20;102424.86;106144;1269;1003318;-48
2023/03/02 05:05:20;;;;;;;13.80;10.60;;;;;;;5.03;59.18;102424.91;107052;1269;25340;-48
2023/03/02 05:07:49;;;;;;;14.40;10.90;;;;;;;5.06;59.22;102425.33;106973;1254;25545;-49
2023/03/02 05:10:19;;;;;;;12.60;9.40;;;;;;;5.10;59.16;102426.64;107072;1269;24114;-48
2023/03/02 05:12:56;;;;;;;13.90;10.70;;;;;;;5.15;59.13;102429.38;106297;1268;1003485;-49
2023/03/02 05:15:30;;;;;;;15.60;10.70;;;;;;;5.21;58.90;102427.95;107032;1271;22532;-48
2023/03/02 05:18:00;;;;;;;14.60;10.80;;;;;;;5.22;58.82;102430.76;107052;1269;22531;-48
2023/03/02 05:20:30;;;;;;;14.50;10.40;;;;;;;5.25;58.83;102429.63;107050;1272;25393;-49
2023/03/02 05:23:03;;;;;;;13.40;10.30;;;;;;;5.30;58.93;102435.43;106998;1271;22644;-49
2023/03/02 05:25:36;;;;;;;11.40;10.00;;;;;;;5.37;58.83;102438.02;106788;1272;25409;-48
2023/03/02 05:28:05;;;;;;;14.10;11.20;;;;;;;5.40;58.61;102440.71;106900;1268;24385;-49
2023/03/02 05:30:36;;;;;;;16.20;10.70;;;;;;;5.42;58.70;102445.91;107003;1270;23267;-48
2023/03/02 05:33:05;;;;;;;14.20;11.80;;;;;;;5.45;58.85;102448.57;106306;1269;1003458;-48
2023/03/02 05:35:34;;;;;;;14.70;10.90;;;;;;;5.49;58.78;102452.47;106792;1270;25319;-48
2023/03/02 05:38:02;;;;;;;14.90;10.60;;;;;;;5.50;58.52;102453.35;107056;1268;22629;-48
2023/03/02 05:40:32;;;;;;;16.50;10.80;;;;;;;5.51;58.75;102457.34;107118;1268;23209;-49
2023/03/02 05:43:00;;;;;;;13.00;10.20;;;;;;;5.54;58.78;102461.37;106793;1275;22539;-49
2023/03/02 05:45:36;;;;;;;14.30;10.80;;;;;;;5.56;58.79;102459.71;107194;1269;22538;-48
2023/03/02 05:48:05;;;;;;;13.80;11.00;;;;;;;5.60;58.80;102464.80;106340;1269;1003410;-48
2023/03/02 05:50:34;;;;;;;15.90;11.30;;;;;;;5.63;58.75;102469.03;106875;1272;24264;-49
2023/03/02 05:53:02;;;;;;;15.50;11.60;;;;;;;5.68;58.76;102471.39;106788;1270;22712;-49
2023/03/02 05:55:35;;;;;;;16.60;11.50;;;;;;;5.80;58.45;102473.60;107072;1268;25318;-48
2023/03/02 05:58:10;;;;;;;16.00;11.80;;;;;;;5.86;58.36;102471.70;106807;1273;24238;-49
2023/03/02 06:00:40;;;;;;;16.20;11.00;;;;;;;5.90;58.37;102472.14;106946;1273;25347;-48
2023/03/02 06:03:09;;;;;;;17.60;12.50;;;;;;;5.93;58.28;102470.50;107163;1253;22588;-48
2023/03/02 06:05:38;;;;;;;16.40;12.00;;;;;;;5.95;58.13;102474.31;107040;1269;24260;-49
2023/03/02 06:08:10;;;;;;;16.30;12.00;;;;;;;5.96;58.01;102476.77;107012;1272;25322;-49
2023/03/02 06:10:41;;;;;;;16.60;11.60;;;;;;;5.98;58.24;102479.05;106951;1271;25409;-48
2023/03/02 06:13:10;;;;;;;15.80;11.70;;;;;;;6.03;58.07;102477.80;106301;1268;1003083;-48
2023/03/02 06:15:42;;;;;;;16.50;11.80;;;;;;;6.05;58.09;102479.76;107142;1271;25401;-48
2023/03/02 06:18:12;;;;;;;16.40;13.00;;;;;;;6.06;58.07;102479.94;106889;1268;25366;-48
2023/03/02 06:20:41;;;;;;;16.40;12.40;;;;;;;6.08;57.85;102480.34;106959;1275;22524;-49
2023/03/02 06:23:10;;;;;;;16.50;11.70;;;;;;;6.09;58.02;102484.68;106960;1272;22528;-48
2023/03/02 06:25:42;;;;;;;15.90;11.60;;;;;;;6.15;58.04;102484.30;106981;1270;25523;-49
2023/03/02 06:28:11;;;;;;;14.60;11.00;;;;;;;6.24;58.11;102486.77;107086;1270;25326;-48
2023/03/02 06:30:40;;;;;;;15.60;11.70;;;;;;;6.34;57.91;102488.02;107009;1268;25343;-49
2023/03/02 06:33:11;;;;;;;16.60;12.00;;;;;;;6.43;57.80;102492.89;105951;1268;1002482;-48
2023/03/02 06:35:41;;;;;;;15.20;12.00;;;;;;;6.54;57.51;102497.96;107016;1268;25360;-48
2023/03/02 06:38:10;;;;;;;15.70;12.30;;;;;;;6.59;57.22;102500.33;106836;1271;22531;-49
2023/03/02 06:40:39;;;;;;;17.10;13.10;;;;;;;6.64;57.11;102496.62;107069;1253;22520;-48
2023/03/02 06:43:07;;;;;;;16.80;13.10;;;;;;;6.69;56.90;102491.91;106772;1274;25482;-48
2023/03/02 06:45:36;;;;;;;14.80;11.10;;;;;;;6.72;56.84;102491.11;107021;1271;25361;-48
2023/03/02 06:48:06;;;;;;;15.60;12.40;;;;;;;6.77;56.90;102495.02;106966;1270;25391;-48
2023/03/02 06:50:35;;;;;;;13.40;11.00;;;;;;;6.82;56.94;102488.40;107038;1269;22544;-48
2023/03/02 06:53:04;;;;;;;12.80;11.40;;;;;;;6.90;56.82;102487.89;106842;1273;25789;-48
2023/03/02 06:55:32;;;;;;;16.40;11.70;;;;;;;6.98;56.48;102488.73;106862;1273;25373;-48
2023/03/02 06:58:01;;;;;;;12.40;10.50;;;;;;;7.03;56.07;102487.11;107056;1271;24205;-48
2023/03/02 07:00:30;;;;;;;13.00;10.30;;;;;;;7.05;55.93;102484.39;107034;1269;25485;-48
2023/03/02 07:03:00;;;;;;;13.20;11.00;;;;;;;7.09;55.88;102486.02;106941;1269;26771;-48
2023/03/02 07:05:31;;;;;;;13.90;10.30;;;;;;;7.17;55.73;102487.73;107110;1268;25373;-49
2023/03/02 07:07:59;;;;;;;12.70;9.90;;;;;;;7.23;55.28;102490.11;107066;1269;25353;-48
2023/03/02 07:10:28;;;;;;;11.50;9.50;;;;;;;7.25;55.27;102491.35;107025;1268;23887;-48
2023/03/02 07:12:57;;;;;;;12.00;9.70;;;;;;;7.30;54.93;102492.31;106853;1269;25434;-48
2023/03/02 07:15:25;;;;;;;11.70;9.50;;;;;;;7.35;55.00;102493.10;106701;1273;25392;-48
2023/03/02 07:17:54;;;;;;;11.50;9.20;;;;;;;7.42;54.73;102494.09;107046;1270;24388;-49
2023/03/02 07:20:22;;;;;;;11.20;8.80;;;;;;;7.49;54.42;102494.21;107054;1272;25353;-48
2023/03/02 07:22:51;;;;;;;10.70;7.80;;;;;;;7.57;54.16;102495.23;107100;1270;25328;-48
2023/03/02 07:25:20;;;;;;;9.60;7.40;;;;;;;7.68;53.58;102498.89;107003;1270;25337;-48
2023/03/02 07:27:48;;;;;;;10.10;7.10;;;;;;;7.82;52.35;102494.64;106231;1270;1003207;-48
2023/03/02 07:30:20;;;;;;;8.10;6.80;;;;;;;7.91;51.28;102492.20;107046;1268;25513;-48
2023/03/02 07:32:48;;;;;;;9.30;6.70;;;;;;;7.93;50.92;102494.66;107003;1269;25418;-48
2023/03/02 07:35:17;;;;;;;8.30;6.80;;;;;;;7.93;50.98;102492.08;106746;1275;25456;-48
2023/03/02 07:37:46;;;;;;;9.50;7.40;;;;;;;7.97;50.77;102496.13;107008;1270;22598;-48
2023/03/02 07:40:14;;;;;;;8.70;6.40;;;;;;;7.99;50.92;102494.61;106981;1269;22536;-48
2023/03/02 07:42:43;;;;;;;8.70;5.70;;;;;;;8.04;50.34;102488.10;107090;1270;25328;-48
2023/03/02 07:45:15;;;;;;;6.50;5.20;;;;;;;8.07;49.05;102485.23;107037;1268;25324;-48
2023/03/02 07:47:44;;;;;;;5.90;4.40;;;;;;;8.08;48.09;102485.75;107032;1269;25348;-48
2023/03/02 07:50:12;;;;;;;5.20;4.70;;;;;;;8.09;47.95;102487.15;106788;1268;24238;-48
2023/03/02 07:52:41;;;;;;;6.70;5.00;;;;;;;8.08;47.47;102488.52;107035;1269;25325;-48
2023/03/02 07:55:10;;;;;;;6.50;4.50;;;;;;;8.08;47.05;102486.45;107033;1273;25453;-48
2023/03/02 07:57:38;;;;;;;6.70;4.70;;;;;;;8.09;46.41;102486.13;107064;1268;26500;-48
2023/03/02 08:00:08;;;;;;;6.40;4.90;;;;;;;8.11;45.74;102490.13;107160;1268;25541;-48
2023/03/02 08:02:40;;;;;;;5.90;5.10;;;;;;;8.11;45.62;102493.58;106680;1270;25326;-48
2023/03/02 08:05:09;;;;;;;6.10;4.70;;;;;;;8.11;45.47;102495.15;106759;1275;22875;-48
2023/03/02 08:07:39;;;;;;;4.90;4.20;;;;;;;8.12;44.83;102497.92;106873;1271;22588;-48
2023/03/02 08:10:10;;;;;;;5.00;4.10;;;;;;;8.13;44.76;102499.84;106214;1270;1003284;-49
2023/03/02 08:12:38;;;;;;;7.30;4.60;;;;;;;8.16;44.37;102499.01;107015;1261;22562;-48
2023/03/02 08:15:08;;;;;;;6.10;4.70;;;;;;;8.17;44.48;102500.42;107013;1268;22601;-49
2023/03/02 08:17:37;;;;;;;6.30;4.60;;;;;;;8.20;44.29;102502.37;106985;1269;22913;-48
2023/03/02 08:20:08;;;;;;;10.20;8.90;;;;;;;8.24;44.31;102499.33;107148;1270;27522;-48
2023/03/02 08:22:36;;;;;;;5.90;5.20;;;;;;;8.28;44.33;102495.26;107025;1270;25352;-48
2023/03/02 08:25:06;;;;;;;6.30;5.50;;;;;;;8.31;44.06;102498.06;107025;1268;22521;-47
2023/03/02 08:27:35;;;;;;;8.00;4.90;;;;;;;8.33;43.83;102496.54;106911;1270;22653;-48
2023/03/02 08:30:05;;;;;;;7.10;4.80;;;;;;;8.36;43.57;102498.65;106765;1270;22529;-48
2023/03/02 08:32:33;;;;;;;6.30;4.70;;;;;;;8.39;43.78;102500.60;106998;1273;22634;-48
2023/03/02 08:35:03;;;;;;;7.00;4.30;;;;;;;8.43;44.16;102497.21;106875;1270;25523;-48
2023/03/02 08:37:31;;;;;;;5.60;4.10;;;;;;;8.49;43.98;102500.76;107079;1269;22520;-48
2023/03/02 08:39:59;;;;;;;5.10;4.20;;;;;;;8.55;43.63;102499.98;107139;1270;22600;-48
2023/03/02 08:42:28;;;;;;;6.30;4.20;;;;;;;8.60;43.29;102505.08;107078;1272;25326;-47
2023/03/02 08:44:57;;;;;;;5.10;4.00;;;;;;;8.62;42.96;102504.75;106336;1268;1003548;-48
2023/03/02 08:47:28;;;;;;;6.40;4.70;;;;;;;8.66;43.33;102506.90;107048;1268;25339;-48
2023/03/02 08:49:56;;;;;;;6.00;4.50;;;;;;;8.74;44.10;102510.45;107019;1270;25351;-48
2023/03/02 08:52:25;;;;;;;7.50;5.70;;;;;;;8.84;43.92;102515.27;107032;1268;24255;-48
2023/03/02 08:54:53;;;;;;;5.90;4.90;;;;;;;8.92;44.26;102510.53;106133;1269;1002997;-48
2023/03/02 08:57:22;;;;;;;7.50;5.40;;;;;;;9.00;44.32;102506.48;106997;1261;25449;-48
2023/03/02 08:59:51;;;;;;;8.20;6.00;;;;;;;9.08;44.53;102509.16;106122;1257;1003110;-47
2023/03/02 09:02:19;;;;;;;7.50;5.60;;;;;;;9.12;44.89;102511.30;106891;1272;22545;-47
2023/03/02 09:04:48;;;;;;;8.10;5.80;;;;;;;9.18;44.99;102510.85;106281;1270;1003037;-47
2023/03/02 09:07:18;;;;;;;7.00;5.60;;;;;;;9.25;44.82;102507.13;107063;1270;25423;-47
2023/03/02 09:09:47;;;;;;;7.00;5.80;;;;;;;9.30;44.18;102506.67;107024;1274;25325;-48
2023/03/02 09:12:17;;;;;;;9.00;5.80;;;;;;;9.35;44.01;102507.77;106964;1270;25325;-47
2023/03/02 09:14:45;;;;;;;7.20;5.20;;;;;;;9.39;44.07;102508.66;107010;1270;22527;-46
2023/03/02 09:17:14;;;;;;;7.90;5.60;;;;;;;9.44;43.92;102506.30;107201;1269;25337;-46
2023/03/02 09:19:43;;;;;;;6.00;5.30;;;;;;;9.47;43.64;102503.21;106999;1273;22531;-46
2023/03/02 09:22:12;;;;;;;7.00;5.20;;;;;;;9.47;43.65;102502.52;106771;1257;25324;-48
2023/03/02 09:24:40;;;;;;;9.00;5.70;;;;;;;9.46;43.66;102502.85;106307;1268;1003107;-47
2023/03/02 09:27:09;;;;;;;7.30;5.90;;;;;;;9.46;43.63;102501.13;107071;1275;25314;-48
2023/03/02 09:29:37;;;;;;;9.30;5.90;;;;;;;9.50;43.51;102496.48;106887;1255;25522;-48
2023/03/02 09:32:06;;;;;;;6.10;4.80;;;;;;;9.55;43.26;102494.64;106949;1273;25338;-48
2023/03/02 09:34:35;;;;;;;4.80;4.30;;;;;;;9.61;43.12;102487.59;107076;1268;25391;-48
2023/03/02 09:37:03;;;;;;;6.60;4.70;;;;;;;9.68;42.52;102487.14;107054;1268;25397;-48
2023/03/02 09:39:32;;;;;;;6.20;4.80;;;;;;;9.76;42.41;102488.95;106821;1269;25328;-48
2023/03/02 09:42:09;;;;;;;7.60;5.60;;;;;;;9.86;42.18;102489.71;106304;1268;1003165;-48
2023/03/02 09:45:07;;;;;;;5.20;4.30;;;;;;;9.94;41.98;102487.54;107033;1268;25328;-48
2023/03/02 09:47:38;;;;;;;4.40;3.50;;;;;;;10.00;41.40;102485.52;106952;1270;26478;-48
2023/03/02 09:50:26;;;;;;;4.00;3.50;;;;;;;10.06;40.96;102480.70;106867;1270;24202;-48
2023/03/02 09:53:32;;;;;;;3.50;2.90;;;;;;;10.13;40.53;102478.55;106974;1268;25582;-48
2023/03/02 09:56:02;;;;;;;3.20;2.90;;;;;;;10.23;40.07;102476.88;107039;1268;25346;-47
2023/03/02 09:58:34;;;;;;;6.20;3.40;;;;;;;10.31;39.60;102474.86;107033;1271;25594;-48
2023/03/02 10:01:07;;;;;;;5.20;4.10;;;;;;;10.40;39.71;102472.48;107030;1270;22538;-47
2023/03/02 10:04:01;;;;;;;5.80;3.70;;;;;;;10.46;39.62;102470.44;107149;1268;24296;-47
2023/03/02 10:06:30;;;;;;;5.00;3.50;;;;;;;10.50;39.49;102470.45;106885;1270;22626;-48
2023/03/02 10:08:59;;;;;;;3.60;3.10;;;;;;;10.52;39.20;102471.17;106809;1270;25640;-47
2023/03/02 10:11:38;;;;;;;4.60;3.20;;;;;;;10.52;39.32;102464.58;106778;1270;25034;-47
2023/03/02 10:14:14;;;;;;;5.90;3.80;;;;;;;10.56;39.69;102459.20;106843;1270;25416;-48
2023/03/02 10:16:51;;;;;;;4.30;3.10;;;;;;;10.63;39.61;102457.00;106306;1268;1003687;-48
2023/03/02 10:19:43;;;;;;;4.50;3.60;;;;;;;10.70;39.60;102455.81;107001;1272;25292;-48
2023/03/02 10:22:27;;;;;;;4.30;3.30;;;;;;;10.73;39.21;102457.05;105783;1275;1003035;-48
2023/03/02 10:24:57;;;;;;;4.60;3.20;;;;;;;10.75;38.68;102451.16;106610;1275;22539;-48
2023/03/02 10:27:50;;;;;;;3.40;2.80;;;;;;;10.75;38.43;102449.42;106502;1263;23088;-48
2023/03/02 10:30:30;;;;;;;5.20;3.30;;;;;;;10.76;38.49;102446.83;105936;1286;22608;-48
2023/03/02 10:33:18;;;;;;;6.20;3.70;;;;;;;10.79;38.52;102447.02;105966;1285;24295;-48
2023/03/02 10:35:50;;;;;;;6.00;4.00;;;;;;;10.82;38.68;102442.67;105951;1280;23307;-49
2023/03/02 10:38:22;;;;;;;4.90;3.70;;;;;;;10.85;38.69;102444.60;106158;1284;22534;-48
2023/03/02 10:41:01;;;;;;;4.90;3.80;;;;;;;10.89;38.93;102440.62;105859;1280;22763;-48
2023/03/02 10:43:33;;;;;;;4.10;3.50;;;;;;;10.95;38.60;102434.75;106104;1280;23920;-48
2023/03/02 10:46:03;;;;;;;4.00;3.20;;;;;;;11.02;38.65;102432.33;106235;1280;22695;-49
2023/03/02 10:48:49;;;;;;;3.70;3.30;;;;;;;11.08;38.54;102434.26;106229;1280;22637;-47
2023/03/02 10:51:28;;;;;;;4.40;3.60;;;;;;;11.12;38.61;102429.40;105925;1280;25492;-48
2023/03/02 10:54:10;;;;;;;3.60;3.10;;;;;;;11.17;38.83;102431.33;106197;1280;22545;-48
2023/03/02 10:56:41;;;;;;;4.00;3.20;;;;;;;11.22;38.03;102427.52;105961;1286;25370;-48
2023/03/02 10:59:25;;;;;;;3.50;3.20;;;;;;;11.23;38.06;102425.61;106196;1275;22603;-48
2023/03/02 11:02:24;;;;;;;4.30;3.00;;;;;;;11.24;37.96;102424.92;106436;1275;25377;-48
2023/03/02 11:04:54;;;;;;;5.30;3.50;;;;;;;11.26;37.88;102422.66;105300;1269;1003524;-48
2023/03/02 11:07:26;;;;;;;3.60;3.20;;;;;;;11.29;38.03;102421.80;105410;1276;1003950;-48
2023/03/02 11:10:05;;;;;;;4.70;3.60;;;;;;;11.29;38.13;102418.15;105576;1276;1003851;-48
2023/03/02 11:12:35;;;;;;;4.50;3.40;;;;;;;11.32;38.27;102421.28;106325;1277;25399;-48
2023/03/02 11:15:44;;;;;;;3.70;2.90;;;;;;;11.36;37.95;102420.95;106164;1277;25359;-48
2023/03/02 11:18:21;;;;;;;5.00;3.00;;;;;;;11.42;37.46;102417.48;105900;1282;25355;-48
2023/03/02 11:20:51;;;;;;;5.40;3.30;;;;;;;11.45;37.52;102418.00;105258;1283;1003125;-48
2023/03/02 11:23:23;;;;;;;4.10;2.90;;;;;;;11.46;37.48;102415.75;105941;1281;23912;-49
2023/03/02 11:25:57;;;;;;;4.20;3.30;;;;;;;11.47;37.61;102412.98;105871;1288;22555;-49
2023/03/02 11:28:52;;;;;;;4.80;3.20;;;;;;;11.46;37.54;102411.40;105912;1282;24357;-48
2023/03/02 11:31:45;;;;;;;3.30;3.00;;;;;;;11.43;37.52;102403.93;105684;1290;25387;-48
2023/03/02 11:34:33;;;;;;;3.70;3.10;;;;;;;11.40;37.77;102401.84;105876;1289;22565;-48
2023/03/02 11:37:12;;;;;;;4.10;3.00;;;;;;;11.42;37.86;102397.85;105695;1285;24481;-48
2023/03/02 11:39:46;;;;;;;3.80;3.30;;;;;;;11.45;37.95;102390.02;104946;1286;1003509;-48